Time;durP1;ratioP1;P1;durP2;ratioP2;P2;SDS_P1;SDS_P2;PMS_P1;PMS_P2;Temp;Humidity;BMP_temperature;BMP_pressure;BME280_temperature;BME280_humidity;BME280_pressure;Samples;Min_cycle;Max_cycle;Signal;HPM_P1;HPM_P2
2022/06/12 00:01:08;;;;;;;3.03;2.67;;;;;;;24.31;46.47;101591.44;4987305;28;20058;-79
2022/06/12 00:03:35;;;;;;;6.50;2.95;;;;;;;23.88;46.79;101532.88;4986842;28;20539;-80
2022/06/12 00:06:03;;;;;;;3.28;2.65;;;;;;;24.28;46.87;101608.16;4986861;28;20054;-80
2022/06/12 00:08:31;;;;;;;4.20;3.08;;;;;;;24.23;47.04;101610.63;5003251;28;20046;-80
2022/06/12 00:11:01;;;;;;;4.43;2.90;;;;;;;24.12;47.11;101597.63;5006605;28;20053;-79
2022/06/12 00:13:33;;;;;;;6.75;3.05;;;;;;;23.83;47.31;101550.75;5006511;28;20060;-80
2022/06/12 00:16:02;;;;;;;8.85;3.15;;;;;;;24.13;47.44;101611.00;5006520;28;20053;-79
2022/06/12 00:18:29;;;;;;;3.72;3.10;;;;;;;24.12;47.47;101613.91;5006744;28;20061;-81
2022/06/12 00:21:10;;;;;;;2.67;2.45;;;;;;;24.09;47.42;101605.13;5006872;28;20053;-79
2022/06/12 00:23:41;;;;;;;3.80;2.95;;;;;;;23.99;47.65;101593.81;5007657;28;20133;-79
2022/06/12 00:26:08;;;;;;;3.73;3.13;;;;;;;24.01;47.70;101608.03;5006828;28;20046;-79
2022/06/12 00:28:35;;;;;;;3.15;2.85;;;;;;;23.96;47.65;101610.50;5006757;28;20060;-79
2022/06/12 00:31:02;;;;;;;4.38;2.70;;;;;;;23.89;47.92;101599.63;5006833;28;20069;-78
2022/06/12 00:33:29;;;;;;;3.00;2.70;;;;;;;23.73;47.78;101585.50;5006818;28;20112;-79
2022/06/12 00:35:56;;;;;;;3.58;3.20;;;;;;;23.70;48.02;101578.63;5023162;28;20045;-79
2022/06/12 00:38:22;;;;;;;3.88;3.03;;;;;;;23.86;48.23;101615.44;5006458;28;20046;-80
2022/06/12 00:40:49;;;;;;;3.03;2.80;;;;;;;23.80;48.26;101600.81;5023232;28;20053;-80
2022/06/12 00:43:16;;;;;;;6.32;3.05;;;;;;;23.88;48.33;101607.94;5006772;28;20049;-80
2022/06/12 00:45:58;;;;;;;2.92;2.63;;;;;;;23.86;48.63;101626.28;5007315;28;20050;-78
2022/06/12 00:48:38;;;;;;;5.00;2.95;;;;;;;23.76;48.82;101598.69;5008616;28;20136;-80
2022/06/12 00:51:15;;;;;;;3.40;3.10;;;;;;;23.87;48.64;101619.84;5010424;28;20056;-81
2022/06/12 00:53:49;;;;;;;4.70;3.35;;;;;;;23.71;48.55;101593.84;4993457;28;20053;-80
2022/06/12 00:56:21;;;;;;;3.50;2.72;;;;;;;23.84;48.53;101622.97;4989214;28;20542;-80
2022/06/12 00:58:52;;;;;;;4.20;3.22;;;;;;;23.63;48.39;101596.72;4988826;28;20050;-82
2022/06/12 01:01:25;;;;;;;3.28;2.97;;;;;;;23.65;48.73;101609.03;4988925;28;20054;-79
2022/06/12 01:06:38;;;;;;;5.88;3.30;;;;;;;23.74;48.90;101620.59;4988535;28;20480;-80
2022/06/12 01:09:13;;;;;;;4.28;3.17;;;;;;;23.70;49.00;101615.75;4992687;28;20523;-80
2022/06/12 01:11:43;;;;;;;3.85;2.92;;;;;;;23.20;48.95;101554.28;5005558;28;20050;-79
2022/06/12 01:14:13;;;;;;;3.55;2.75;;;;;;;23.61;49.12;101618.59;5006818;28;20057;-80
2022/06/12 01:16:45;;;;;;;3.05;2.75;;;;;;;23.56;49.22;101610.22;5006918;28;20058;-81
2022/06/12 01:19:27;;;;;;;4.38;2.67;;;;;;;23.54;49.33;101600.59;5005408;28;20062;-80
2022/06/12 01:22:00;;;;;;;;;;;;;;;23.59;48.86;101615.25;5006019;28;20104;-79
2022/06/12 01:24:29;;;;;;;4.63;3.28;;;;;;;23.65;49.14;101617.16;5022780;28;19922;-79
2022/06/12 01:27:18;;;;;;;2.85;2.47;;;;;;;23.62;49.31;101614.03;5006035;28;20045;-80
2022/06/12 01:30:07;;;;;;;5.80;3.55;;;;;;;23.58;49.40;101615.44;5005914;28;20125;-78
2022/06/12 01:32:36;;;;;;;3.67;2.95;;;;;;;23.54;49.49;101612.28;5006305;28;20208;-79
2022/06/12 01:35:19;;;;;;;6.97;2.97;;;;;;;22.45;49.77;101435.78;5005625;28;20060;-79
2022/06/12 01:37:55;;;;;;;4.53;2.97;;;;;;;23.49;49.70;101612.03;5008509;28;20412;-80
2022/06/12 01:40:35;;;;;;;5.97;3.20;;;;;;;23.45;49.72;101602.66;5009382;28;20045;-80
2022/06/12 01:43:14;;;;;;;3.67;3.00;;;;;;;23.58;49.61;101607.31;5008683;28;20041;-80
2022/06/12 01:45:56;;;;;;;2.90;2.70;;;;;;;23.65;49.26;101613.63;5008776;28;20065;-79
2022/06/12 01:49:10;;;;;;;2.58;2.38;;;;;;;23.71;49.19;101603.84;5008267;28;20050;-80
2022/06/12 01:51:52;;;;;;;5.85;3.13;;;;;;;23.48;49.01;101574.31;5000132;28;20393;-79
2022/06/12 01:54:28;;;;;;;3.33;3.00;;;;;;;23.65;48.94;101603.59;4988910;28;20186;-79
2022/06/12 01:57:06;;;;;;;4.05;3.10;;;;;;;23.61;49.41;101607.75;5005338;28;20054;-80
2022/06/12 01:59:49;;;;;;;7.05;3.22;;;;;;;23.56;49.31;101604.78;5004782;28;20436;-78
2022/06/12 02:02:37;;;;;;;3.95;2.63;;;;;;;23.55;49.34;101607.72;5004954;28;20205;-80
2022/06/12 02:05:19;;;;;;;4.45;2.70;;;;;;;23.49;49.19;101612.03;5004693;28;20519;-79
2022/06/12 02:07:55;;;;;;;3.30;3.00;;;;;;;23.47;49.16;101605.97;5005257;28;20291;-80
2022/06/12 02:10:28;;;;;;;3.33;3.00;;;;;;;23.46;49.36;101604.31;5005308;28;20136;-79
2022/06/12 02:13:11;;;;;;;3.97;3.00;;;;;;;23.11;49.62;101554.63;5008844;28;20081;-78
2022/06/12 02:15:50;;;;;;;4.05;3.30;;;;;;;23.49;49.86;101603.06;5008318;28;20112;-80
2022/06/12 02:18:30;;;;;;;6.32;3.75;;;;;;;23.54;50.08;101601.44;5009442;28;20081;-80
2022/06/12 02:21:15;;;;;;;6.40;3.40;;;;;;;23.50;50.03;101600.19;5008251;28;20050;-80
2022/06/12 02:23:56;;;;;;;3.80;3.50;;;;;;;23.38;50.31;101594.47;5008626;28;20096;-79
2022/06/12 02:26:28;;;;;;;4.25;3.70;;;;;;;23.32;50.33;101597.94;5008310;28;20201;-80
2022/06/12 02:29:01;;;;;;;4.15;3.10;;;;;;;23.25;50.23;101597.06;5009574;28;20377;-79
2022/06/12 02:31:36;;;;;;;5.95;3.42;;;;;;;23.00;50.44;101569.56;5009405;28;20474;-80
2022/06/12 02:34:09;;;;;;;4.72;2.95;;;;;;;23.08;50.65;101588.38;5007885;28;20046;-78
2022/06/12 02:36:41;;;;;;;3.10;2.78;;;;;;;23.15;50.83;101594.69;5008214;28;20451;-79
2022/06/12 02:39:19;;;;;;;5.63;2.85;;;;;;;23.12;50.81;101607.78;5007976;28;20510;-79
2022/06/12 02:41:58;;;;;;;7.00;2.97;;;;;;;23.04;50.72;101595.22;5008204;28;20057;-79
2022/06/12 02:45:05;;;;;;;3.28;2.65;;;;;;;22.80;50.75;101563.94;5007832;28;20085;-79
2022/06/12 02:47:36;;;;;;;3.13;2.83;;;;;;;23.02;51.05;101603.53;5007448;28;20057;-79
2022/06/12 02:50:06;;;;;;;4.18;2.92;;;;;;;22.57;50.82;101545.19;5009406;28;20054;-80
2022/06/12 02:52:42;;;;;;;2.80;2.60;;;;;;;22.98;50.75;101623.06;5004590;28;20050;-78
2022/06/12 02:55:22;;;;;;;4.03;2.65;;;;;;;22.90;50.63;101610.47;4988926;28;20113;-79
2022/06/12 02:58:25;;;;;;;4.50;2.83;;;;;;;22.83;50.07;101599.56;4988483;28;20078;-78
2022/06/12 03:01:01;;;;;;;3.22;2.95;;;;;;;23.07;50.34;101632.75;4989174;28;20299;-79
2022/06/12 03:03:42;;;;;;;4.47;3.15;;;;;;;23.11;50.62;101625.91;4988411;28;20082;-79
2022/06/12 03:06:10;;;;;;;3.33;3.03;;;;;;;23.12;50.18;101629.47;4988789;28;20046;-79
2022/06/12 03:08:42;;;;;;;5.50;2.95;;;;;;;21.92;50.45;101444.19;5002198;28;20564;-79
2022/06/12 03:11:28;;;;;;;2.80;2.55;;;;;;;22.98;50.83;101620.38;5008021;28;20089;-77
2022/06/12 03:13:56;;;;;;;3.58;3.08;;;;;;;22.98;51.02;101634.72;5008324;28;20496;-78
2022/06/12 03:16:37;;;;;;;2.95;2.75;;;;;;;22.95;50.91;101634.25;5024997;28;20065;-79
2022/06/12 03:19:09;;;;;;;3.40;2.88;;;;;;;22.79;51.04;101619.97;5009206;28;20076;-79
2022/06/12 03:21:35;;;;;;;;;;;;;;;22.83;51.23;101653.72;5009043;28;20058;-79
2022/06/12 03:24:23;;;;;;;6.30;2.80;;;;;;;22.80;50.91;101643.28;5024481;28;19921;-79
2022/06/12 03:27:08;;;;;;;2.83;2.63;;;;;;;22.82;50.94;101648.50;5008725;28;20057;-79
2022/06/12 03:29:55;;;;;;;6.45;3.53;;;;;;;22.83;51.53;101648.31;5009370;28;20065;-79
2022/06/12 03:32:41;;;;;;;3.88;2.67;;;;;;;22.70;50.29;101618.41;5008542;28;20406;-80
2022/06/12 03:35:26;;;;;;;3.80;3.20;;;;;;;22.97;50.64;101648.44;5007033;28;20477;-80
2022/06/12 03:38:13;;;;;;;3.67;3.03;;;;;;;22.91;50.99;101632.97;5008410;28;20476;-80
2022/06/12 03:40:52;;;;;;;4.35;3.28;;;;;;;22.58;50.97;101582.03;5007022;28;20053;-81
2022/06/12 03:43:31;;;;;;;4.32;2.95;;;;;;;23.02;51.30;101651.44;5007000;28;20164;-78
2022/06/12 03:46:17;;;;;;;6.03;2.97;;;;;;;23.00;51.08;101656.22;5007085;28;20299;-80
2022/06/12 03:49:22;;;;;;;5.32;2.95;;;;;;;22.95;51.32;101647.81;5006625;28;20046;-80
2022/06/12 03:51:54;;;;;;;6.43;3.53;;;;;;;22.93;51.62;101657.97;5007939;28;20054;-79
2022/06/12 03:54:31;;;;;;;3.80;3.08;;;;;;;22.86;51.89;101657.06;4986876;28;20056;-79
2022/06/12 04:00:10;;;;;;;6.90;3.10;;;;;;;22.72;52.43;101659.66;4987546;28;20050;-79
2022/06/12 04:02:38;;;;;;;4.63;3.35;;;;;;;22.57;52.54;101648.88;4988142;28;20073;-79
2022/06/12 04:05:08;;;;;;;3.53;2.95;;;;;;;22.55;52.37;101650.91;4987104;28;20047;-80
2022/06/12 04:07:39;;;;;;;4.18;2.95;;;;;;;22.35;52.35;101626.31;4987905;28;20540;-80
2022/06/12 04:10:10;;;;;;;3.90;2.67;;;;;;;22.57;52.42;101669.66;5003280;28;20046;-81
2022/06/12 04:12:37;;;;;;;4.07;2.65;;;;;;;22.55;52.26;101667.16;5005458;28;20058;-79
2022/06/12 04:15:12;;;;;;;2.75;2.55;;;;;;;22.43;52.49;101646.16;4990271;28;20058;-79
2022/06/12 04:17:40;;;;;;;5.30;2.88;;;;;;;22.51;52.35;101649.63;4998905;28;20054;-79
2022/06/12 04:20:15;;;;;;;5.72;3.38;;;;;;;22.55;52.75;101661.75;4993749;28;20491;-79
2022/06/12 04:22:48;;;;;;;4.13;2.78;;;;;;;22.54;52.87;101664.63;5009668;28;20133;-80
2022/06/12 04:25:27;;;;;;;4.60;3.05;;;;;;;22.55;52.59;101666.28;4993614;28;20102;-79
2022/06/12 04:27:54;;;;;;;4.07;3.25;;;;;;;22.56;53.01;101676.09;5002647;28;20050;-79
2022/06/12 04:30:34;;;;;;;3.47;2.90;;;;;;;22.53;53.12;101662.97;4985712;28;20054;-79
2022/06/12 04:33:21;;;;;;;6.93;3.28;;;;;;;22.59;53.72;101678.41;4995358;28;20065;-79
2022/06/12 04:36:00;;;;;;;4.45;2.75;;;;;;;22.64;54.06;101675.16;5002024;28;20042;-80
2022/06/12 04:38:30;;;;;;;5.00;3.00;;;;;;;22.71;53.51;101676.06;5001382;28;20142;-79
2022/06/12 04:40:57;;;;;;;4.95;3.03;;;;;;;22.62;54.23;101656.38;5001923;28;20124;-79
2022/06/12 04:43:24;;;;;;;4.70;2.83;;;;;;;22.65;54.51;101656.03;4985682;28;20056;-79
2022/06/12 04:45:51;;;;;;;4.20;3.17;;;;;;;22.82;54.67;101679.13;5002029;28;20046;-79
2022/06/12 04:48:30;;;;;;;3.97;2.95;;;;;;;22.87;54.25;101691.25;4997730;28;20094;-79
2022/06/12 04:50:57;;;;;;;3.08;2.88;;;;;;;22.95;54.18;101683.00;4982993;28;20046;-81
2022/06/12 04:53:23;;;;;;;3.08;2.80;;;;;;;22.98;54.13;101671.81;4984860;28;20046;-81
2022/06/12 04:55:51;;;;;;;3.47;3.17;;;;;;;23.10;53.69;101683.81;4985978;28;20046;-80
2022/06/12 04:58:18;;;;;;;5.38;3.17;;;;;;;23.13;52.96;101674.44;4986212;28;20125;-81
2022/06/12 05:00:45;;;;;;;4.38;3.20;;;;;;;23.31;52.78;101698.41;4983820;28;20050;-81
2022/06/12 05:03:12;;;;;;;3.65;3.13;;;;;;;23.27;52.26;101687.09;4983270;28;20094;-80
2022/06/12 05:05:40;;;;;;;5.22;3.15;;;;;;;23.38;52.16;101696.59;4993369;28;20500;-80
2022/06/12 05:08:08;;;;;;;3.90;3.50;;;;;;;23.30;51.58;101696.69;4999469;28;20089;-79
2022/06/12 05:10:36;;;;;;;3.70;2.83;;;;;;;22.92;52.20;101688.81;4975868;28;20572;-80
2022/06/12 05:13:03;;;;;;;4.82;3.50;;;;;;;22.96;52.19;101668.41;4991160;28;20061;-79
2022/06/12 05:15:30;;;;;;;5.18;3.42;;;;;;;23.24;52.43;101703.75;4988608;28;20046;-80
2022/06/12 05:17:57;;;;;;;6.68;4.18;;;;;;;23.23;52.14;101686.66;5006112;28;20050;-79
2022/06/12 05:20:28;;;;;;;6.13;4.00;;;;;;;23.39;52.06;101711.81;5006354;28;20133;-79
2022/06/12 05:22:56;;;;;;;4.20;3.90;;;;;;;23.32;51.62;101710.91;5006162;28;20049;-79
2022/06/12 05:25:23;;;;;;;4.88;3.45;;;;;;;23.37;51.99;101711.16;4991497;28;20058;-79
2022/06/12 05:27:51;;;;;;;3.60;3.30;;;;;;;23.16;52.62;101682.22;4992807;28;20050;-78
2022/06/12 05:30:22;;;;;;;4.13;3.70;;;;;;;23.33;52.73;101696.34;4990185;28;20061;-77
2022/06/12 05:32:52;;;;;;;6.38;3.63;;;;;;;23.43;52.89;101713.94;4992575;28;20054;-78
2022/06/12 05:35:20;;;;;;;4.13;3.70;;;;;;;23.34;53.00;101666.31;4992545;28;20050;-79
2022/06/12 05:37:49;;;;;;;9.98;4.68;;;;;;;22.88;52.29;101598.16;4992236;28;20101;-79
2022/06/12 05:40:25;;;;;;;5.40;4.93;;;;;;;23.57;52.08;101709.47;4992059;28;20125;-79
2022/06/12 05:42:52;;;;;;;7.50;4.43;;;;;;;23.58;51.80;101684.03;4993148;28;20061;-80
2022/06/12 05:45:22;;;;;;;5.30;4.18;;;;;;;23.54;51.65;101681.91;5007735;28;20057;-78
2022/06/12 05:47:53;;;;;;;8.27;4.53;;;;;;;23.70;52.28;101714.16;4992146;28;20141;-79
2022/06/12 05:50:25;;;;;;;7.78;4.88;;;;;;;23.27;52.31;101638.34;5007853;28;20056;-79
2022/06/12 05:52:52;;;;;;;4.95;4.53;;;;;;;23.71;51.98;101706.84;4991223;28;20126;-78
2022/06/12 05:55:19;;;;;;;5.07;4.60;;;;;;;23.30;51.90;101639.81;5008263;28;20133;-79
2022/06/12 05:57:46;;;;;;;6.60;4.53;;;;;;;23.60;52.06;101687.41;5007910;28;20046;-78
2022/06/12 06:00:23;;;;;;;4.90;4.40;;;;;;;23.75;52.72;101727.16;5007687;28;20050;-78
2022/06/12 06:02:50;;;;;;;4.65;4.25;;;;;;;23.79;52.02;101728.47;5006556;28;20057;-78
2022/06/12 06:05:17;;;;;;;5.50;3.88;;;;;;;23.89;52.10;101728.94;5007756;28;20076;-79
2022/06/12 06:07:43;;;;;;;4.30;3.90;;;;;;;23.96;51.92;101721.69;4990965;28;20046;-79
2022/06/12 06:10:18;;;;;;;5.35;4.05;;;;;;;23.78;51.74;101694.22;5021001;28;20048;-81
2022/06/12 06:12:45;;;;;;;7.07;4.70;;;;;;;24.03;52.14;101732.56;5012431;28;20054;-79
2022/06/12 06:15:13;;;;;;;6.15;4.53;;;;;;;24.03;52.71;101724.44;5012754;28;20305;-79
2022/06/12 06:17:40;;;;;;;4.38;3.97;;;;;;;23.93;52.56;101708.50;5010014;28;20046;-80
2022/06/12 06:20:08;;;;;;;5.75;4.53;;;;;;;24.13;52.47;101722.22;5009887;28;20056;-80
2022/06/12 06:22:35;;;;;;;4.63;4.05;;;;;;;24.19;52.24;101723.28;5006722;28;20038;-79
2022/06/12 06:25:02;;;;;;;6.05;4.50;;;;;;;24.29;52.11;101724.59;5005765;28;20405;-80
2022/06/12 06:27:29;;;;;;;7.07;3.95;;;;;;;24.13;52.25;101688.81;5005742;28;20112;-79
2022/06/12 06:29:56;;;;;;;4.30;3.90;;;;;;;24.38;52.10;101727.16;5006174;28;20252;-79
2022/06/12 06:32:25;;;;;;;4.13;3.83;;;;;;;24.45;51.81;101728.88;5007304;28;20054;-79
2022/06/12 06:34:52;;;;;;;4.70;3.85;;;;;;;24.55;52.54;101723.09;4991110;28;20054;-80
2022/06/12 06:37:19;;;;;;;5.82;4.18;;;;;;;24.63;52.07;101730.22;5007316;28;20408;-78
2022/06/12 06:39:45;;;;;;;7.80;3.78;;;;;;;24.62;51.51;101731.28;5007636;28;20049;-80
2022/06/12 06:42:12;;;;;;;5.80;4.50;;;;;;;24.42;52.02;101713.00;5007900;28;20054;-79
2022/06/12 06:47:25;;;;;;;5.60;3.97;;;;;;;24.63;50.59;101724.81;5008919;28;20054;-79
2022/06/12 06:49:54;;;;;;;3.90;3.60;;;;;;;24.70;51.80;101741.97;5007864;28;20045;-80
2022/06/12 06:52:22;;;;;;;4.30;3.63;;;;;;;24.58;51.66;101697.44;5004778;28;20066;-80
2022/06/12 06:54:50;;;;;;;6.70;3.67;;;;;;;24.85;51.27;101728.22;4989367;28;20300;-80
2022/06/12 06:57:17;;;;;;;5.20;3.42;;;;;;;24.90;52.08;101726.59;4991424;28;20054;-78
2022/06/12 06:59:44;;;;;;;4.90;3.78;;;;;;;24.37;51.75;101638.63;4991946;28;20050;-79
2022/06/12 07:02:11;;;;;;;3.90;3.53;;;;;;;25.08;51.13;101750.44;4989740;28;20058;-81
2022/06/12 07:04:39;;;;;;;6.90;3.65;;;;;;;25.14;51.13;101743.34;4989156;28;20436;-78
2022/06/12 07:07:08;;;;;;;5.78;4.10;;;;;;;25.24;51.52;101749.25;4986995;28;20047;-80
2022/06/12 07:09:36;;;;;;;3.80;3.35;;;;;;;25.27;51.44;101732.56;4995950;28;20348;-81
2022/06/12 07:12:04;;;;;;;4.93;3.80;;;;;;;25.43;50.46;101741.34;5007719;28;20053;-79
2022/06/12 07:14:30;;;;;;;6.82;3.45;;;;;;;25.51;50.20;101750.16;5008788;28;20381;-80
2022/06/12 07:16:58;;;;;;;4.97;3.33;;;;;;;25.58;50.45;101750.13;5007836;28;20050;-79
2022/06/12 07:19:25;;;;;;;5.15;3.75;;;;;;;24.97;49.87;101630.69;5007241;28;20058;-79
2022/06/12 07:21:52;;;;;;;5.90;3.72;;;;;;;25.80;49.40;101738.03;5008755;28;20108;-79
2022/06/12 07:24:26;;;;;;;5.70;3.60;;;;;;;25.72;48.85;101696.59;5007360;28;20054;-79
2022/06/12 07:26:52;;;;;;;7.88;4.22;;;;;;;25.96;49.38;101730.50;5008270;28;20049;-79
2022/06/12 07:29:21;;;;;;;5.43;3.53;;;;;;;25.99;49.49;101739.06;5006446;28;20503;-79
2022/06/12 07:31:49;;;;;;;3.63;3.17;;;;;;;26.13;49.51;101731.72;5006998;28;20077;-79
2022/06/12 07:34:16;;;;;;;5.25;3.38;;;;;;;26.10;49.58;101724.00;5006168;28;20305;-80
2022/06/12 07:36:46;;;;;;;3.55;3.25;;;;;;;26.19;48.28;101736.34;4998027;28;20056;-80
2022/06/12 07:39:18;;;;;;;3.70;3.40;;;;;;;26.27;48.08;101731.72;4988134;28;20046;-80
2022/06/12 07:41:48;;;;;;;3.30;3.00;;;;;;;26.42;48.56;101724.13;4989166;28;20108;-79
2022/06/12 07:44:19;;;;;;;4.05;3.28;;;;;;;26.14;48.13;101694.47;5003934;28;20408;-80
2022/06/12 07:46:48;;;;;;;3.97;2.88;;;;;;;26.26;48.66;101700.09;5003900;28;20268;-80
2022/06/12 07:49:16;;;;;;;3.00;2.63;;;;;;;26.18;46.77;101693.00;4987952;28;20046;-81
2022/06/12 07:51:44;;;;;;;4.03;2.97;;;;;;;26.41;46.35;101717.84;4987331;28;20050;-81
2022/06/12 07:54:11;;;;;;;3.60;3.30;;;;;;;26.48;46.31;101717.78;4988396;28;20582;-80
2022/06/12 07:56:38;;;;;;;5.20;3.17;;;;;;;26.46;46.08;101709.03;4987782;28;20050;-79
2022/06/12 07:59:07;;;;;;;3.45;2.88;;;;;;;26.57;46.45;101719.25;4987756;28;20085;-80
2022/06/12 08:01:36;;;;;;;3.15;2.85;;;;;;;26.15;47.22;101650.72;4989115;28;20227;-79
2022/06/12 08:04:05;;;;;;;3.47;2.92;;;;;;;26.67;47.85;101720.69;4988895;28;20058;-79
2022/06/12 08:06:32;;;;;;;3.50;2.92;;;;;;;26.83;47.47;101718.31;4988315;28;20062;-80
2022/06/12 08:08:59;;;;;;;3.30;3.00;;;;;;;26.83;47.42;101717.47;4991761;28;20060;-80
2022/06/12 08:11:29;;;;;;;5.90;3.83;;;;;;;26.66;47.80;101719.03;5008769;28;20524;-80
2022/06/12 08:13:55;;;;;;;4.15;3.42;;;;;;;26.70;48.24;101720.25;5009364;28;20074;-79
2022/06/12 08:16:23;;;;;;;3.30;2.67;;;;;;;26.79;47.97;101708.91;5008726;28;20038;-80
2022/06/12 08:18:51;;;;;;;4.70;3.22;;;;;;;26.60;47.86;101716.13;5007634;28;20053;-79
2022/06/12 08:21:18;;;;;;;4.90;3.22;;;;;;;26.53;45.87;101704.44;5006446;28;20111;-79
2022/06/12 08:23:52;;;;;;;3.45;2.85;;;;;;;26.73;46.28;101717.13;5006846;28;20053;-79
2022/06/12 08:26:31;;;;;;;3.58;2.92;;;;;;;27.12;47.19;101720.69;5006209;28;20060;-79
2022/06/12 08:29:03;;;;;;;3.47;3.17;;;;;;;27.01;46.70;101701.22;5007819;28;20504;-78
2022/06/12 08:31:37;;;;;;;4.45;3.40;;;;;;;26.67;46.86;101698.91;5006036;28;20050;-80
2022/06/12 08:34:09;;;;;;;5.28;3.83;;;;;;;26.56;46.72;101706.72;5006245;28;20058;-80
2022/06/12 08:36:37;;;;;;;4.60;3.15;;;;;;;26.80;47.67;101709.75;5005822;28;20475;-81
2022/06/12 08:39:07;;;;;;;4.88;3.65;;;;;;;26.57;45.27;101699.38;5022054;28;20061;-80
2022/06/12 08:41:47;;;;;;;3.42;2.92;;;;;;;26.66;43.22;101691.81;5006496;28;20173;-79
2022/06/12 08:44:39;;;;;;;7.72;3.80;;;;;;;26.83;45.68;101712.88;5006261;28;20057;-80
2022/06/12 08:47:13;;;;;;;5.82;3.40;;;;;;;26.90;45.25;101707.38;5005078;28;20124;-79
2022/06/12 08:50:02;;;;;;;5.45;3.22;;;;;;;27.38;46.18;101706.91;5005720;28;20057;-78
2022/06/12 08:52:47;;;;;;;4.03;3.20;;;;;;;27.05;46.57;101694.28;5001372;28;20363;-81
2022/06/12 08:55:20;;;;;;;4.78;3.50;;;;;;;27.23;46.63;101700.91;5002682;28;20050;-80
2022/06/12 08:57:53;;;;;;;5.95;3.00;;;;;;;27.27;46.69;101697.53;5002414;28;20054;-80
2022/06/12 09:00:26;;;;;;;3.42;3.13;;;;;;;26.94;46.94;101670.47;5002887;28;20101;-80
2022/06/12 09:02:55;;;;;;;4.93;3.10;;;;;;;26.73;47.77;101668.94;4990026;28;20065;-81
2022/06/12 09:05:37;;;;;;;7.05;3.10;;;;;;;26.82;47.84;101674.94;4989703;28;20108;-80
2022/06/12 09:08:20;;;;;;;4.72;2.92;;;;;;;26.61;48.18;101685.13;5003722;28;20053;-80
2022/06/12 09:11:09;;;;;;;5.60;4.05;;;;;;;26.33;46.16;101681.84;5002902;28;20468;-80
2022/06/12 09:13:52;;;;;;;4.90;3.53;;;;;;;26.76;48.04;101690.28;5005656;28;20053;-80
2022/06/12 09:16:44;;;;;;;6.75;3.22;;;;;;;26.67;46.68;101682.56;5005400;28;20130;-82
2022/06/12 09:19:29;;;;;;;3.63;2.80;;;;;;;26.71;47.98;101672.91;5005735;28;20089;-79
2022/06/12 09:22:12;;;;;;;4.22;3.10;;;;;;;26.79;47.88;101669.94;5005692;28;20225;-80
2022/06/12 09:24:51;;;;;;;6.40;3.00;;;;;;;26.83;46.68;101690.25;5006791;28;20046;-81
2022/06/12 09:27:55;;;;;;;3.15;2.80;;;;;;;27.11;46.72;101697.19;5005640;28;20046;-79
2022/06/12 09:30:21;;;;;;;5.10;3.28;;;;;;;26.85;46.50;101693.59;5005664;28;20120;-79
2022/06/12 09:32:54;;;;;;;4.88;3.10;;;;;;;26.95;47.10;101688.50;5005549;28;20088;-81
2022/06/12 09:35:36;;;;;;;3.97;3.35;;;;;;;26.98;46.88;101676.31;5005598;28;20061;-80
2022/06/12 09:38:27;;;;;;;3.20;2.90;;;;;;;27.29;45.88;101683.69;5005883;28;20233;-79
2022/06/12 09:41:05;;;;;;;4.85;3.40;;;;;;;26.90;46.57;101699.22;5005153;28;20081;-80
2022/06/12 09:43:40;;;;;;;5.82;3.50;;;;;;;26.69;46.47;101656.78;5007027;28;20050;-80
2022/06/12 09:46:45;;;;;;;3.13;2.90;;;;;;;26.61;46.73;101689.72;5006170;28;20536;-81
2022/06/12 09:49:23;;;;;;;4.43;3.20;;;;;;;26.80;47.28;101668.91;4990628;28;20090;-81
2022/06/12 09:52:37;;;;;;;4.22;3.28;;;;;;;27.04;46.61;101694.50;5005816;28;20489;-80
2022/06/12 09:55:16;;;;;;;5.82;3.20;;;;;;;26.53;46.81;101627.31;4948871;28;20602;-80
2022/06/12 09:58:09;;;;;;;3.30;3.08;;;;;;;26.72;46.29;101680.03;4965885;28;20679;-80
2022/06/12 10:00:59;;;;;;;3.10;2.90;;;;;;;26.87;46.92;101677.88;4980677;28;20054;-79
2022/06/12 10:03:42;;;;;;;3.60;3.17;;;;;;;26.25;46.42;101559.63;4986713;28;20516;-79
2022/06/12 10:06:24;;;;;;;3.13;2.90;;;;;;;26.59;46.59;101623.75;4984382;28;20059;-80
2022/06/12 10:08:59;;;;;;;3.45;3.17;;;;;;;26.71;46.50;101673.75;4990790;28;20079;-79
2022/06/12 10:11:33;;;;;;;4.45;3.60;;;;;;;26.86;46.08;101662.56;5025294;28;20100;-80
2022/06/12 10:14:10;;;;;;;3.75;3.45;;;;;;;27.04;43.04;101665.38;5009118;28;20317;-82
2022/06/12 10:16:45;;;;;;;4.38;3.97;;;;;;;27.09;42.55;101670.19;5011051;28;20046;-77
2022/06/12 10:19:39;;;;;;;3.55;3.28;;;;;;;27.55;44.43;101666.28;5009748;28;20053;-79
2022/06/12 10:22:13;;;;;;;3.72;3.42;;;;;;;26.94;42.95;101594.16;5012392;28;20385;-79
2022/06/12 10:24:40;;;;;;;3.65;3.33;;;;;;;27.65;44.27;101657.59;5009481;28;20084;-79
2022/06/12 10:27:11;;;;;;;3.50;3.20;;;;;;;27.61;44.35;101656.34;5009634;28;20115;-80
2022/06/12 10:29:47;;;;;;;3.45;3.15;;;;;;;27.60;44.72;101657.38;5009404;28;20235;-80
2022/06/12 10:32:20;;;;;;;3.47;3.17;;;;;;;27.41;44.96;101662.81;5009655;28;20050;-80
2022/06/12 10:34:47;;;;;;;4.78;3.60;;;;;;;27.27;45.18;101651.19;5009840;28;20369;-81
2022/06/12 10:37:22;;;;;;;5.03;3.80;;;;;;;27.26;45.62;101648.69;5011153;28;20252;-79
2022/06/12 10:40:05;;;;;;;3.90;3.53;;;;;;;27.18;45.55;101638.00;5011857;28;20056;-79
2022/06/12 10:42:34;;;;;;;4.82;3.33;;;;;;;27.30;45.22;101652.63;5008050;28;20060;-77
2022/06/12 10:45:01;;;;;;;3.55;3.17;;;;;;;27.00;45.08;101612.38;5009563;28;20058;-78
2022/06/12 10:47:42;;;;;;;4.00;3.20;;;;;;;27.19;45.11;101628.84;5024432;28;20496;-78
2022/06/12 10:50:13;;;;;;;3.60;3.30;;;;;;;27.16;44.58;101621.03;5007957;28;20050;-77
2022/06/12 10:53:09;;;;;;;3.53;3.22;;;;;;;27.32;44.88;101623.25;5001936;28;20496;-78
2022/06/12 10:55:45;;;;;;;8.30;3.50;;;;;;;27.14;45.33;101595.91;4970581;28;20058;-79
2022/06/12 10:58:30;;;;;;;3.90;3.17;;;;;;;27.24;43.97;101624.38;5003922;28;20108;-81
2022/06/12 11:01:03;;;;;;;3.53;3.20;;;;;;;27.06;44.67;101606.06;5003675;28;20121;-80
2022/06/12 11:04:05;;;;;;;4.97;4.05;;;;;;;27.36;44.44;101605.41;4989055;28;20066;-80
2022/06/12 11:06:36;;;;;;;4.65;3.05;;;;;;;27.57;44.29;101608.75;4990306;28;20050;-78
2022/06/12 11:09:25;;;;;;;5.68;3.47;;;;;;;27.44;44.72;101607.81;5005451;28;20497;-78
2022/06/12 11:11:58;;;;;;;3.75;3.08;;;;;;;27.52;44.32;101603.16;5008518;28;20050;-79
2022/06/12 11:15:07;;;;;;;4.57;3.47;;;;;;;26.84;44.70;101507.50;5007972;28;20518;-78
2022/06/12 11:18:05;;;;;;;6.00;4.22;;;;;;;27.07;44.96;101558.66;4994355;28;20484;-82
2022/06/12 11:21:05;;;;;;;4.03;3.63;;;;;;;27.59;43.92;101588.38;5008585;28;20523;-80
2022/06/12 11:23:43;;;;;;;4.63;3.38;;;;;;;27.65;42.99;101581.22;4985084;28;20136;-79
2022/06/12 11:26:36;;;;;;;3.55;3.25;;;;;;;27.75;43.75;101564.31;5006739;28;20049;-80
2022/06/12 11:29:39;;;;;;;3.58;3.25;;;;;;;27.86;42.46;101572.56;5006931;28;20046;-81
2022/06/12 11:32:33;;;;;;;4.30;3.38;;;;;;;28.10;42.89;101545.41;5006666;28;20261;-79
2022/06/12 11:35:32;;;;;;;3.10;2.90;;;;;;;28.14;42.63;101513.88;5007176;28;20136;-79
2022/06/12 11:38:41;;;;;;;5.75;3.00;;;;;;;28.76;41.54;101549.97;5007706;28;20519;-79
2022/06/12 11:41:41;;;;;;;5.35;3.00;;;;;;;28.71;41.06;101555.25;5005006;28;20144;-79
2022/06/12 11:44:16;;;;;;;4.18;3.50;;;;;;;28.15;41.77;101504.63;5007740;28;20412;-78
2022/06/12 11:46:46;;;;;;;3.60;3.30;;;;;;;28.17;42.18;101540.72;5006515;28;20384;-80
2022/06/12 11:49:26;;;;;;;3.50;3.20;;;;;;;27.88;42.96;101532.25;5006246;28;20104;-79
2022/06/12 11:51:56;;;;;;;5.95;3.17;;;;;;;27.92;43.03;101543.56;5007900;28;20337;-79
2022/06/12 11:54:56;;;;;;;3.65;3.35;;;;;;;27.77;42.89;101541.19;4983464;28;20057;-77
2022/06/12 11:57:58;;;;;;;3.55;3.22;;;;;;;27.78;42.40;101523.75;4983558;28;20058;-78
2022/06/12 12:00:51;;;;;;;3.10;2.90;;;;;;;28.00;41.86;101517.84;4967113;28;20073;-77
2022/06/12 12:03:29;;;;;;;5.32;3.05;;;;;;;28.04;42.54;101519.06;4966849;28;20062;-78
2022/06/12 12:06:14;;;;;;;3.42;3.13;;;;;;;28.53;41.43;101523.41;4983359;28;20082;-76
2022/06/12 12:08:50;;;;;;;3.30;3.00;;;;;;;28.45;40.61;101531.94;4985363;28;20058;-79
2022/06/12 12:11:24;;;;;;;3.47;3.17;;;;;;;28.23;41.40;101444.25;5007251;28;20046;-77
2022/06/12 12:13:56;;;;;;;4.57;2.92;;;;;;;28.46;39.53;101448.13;5006738;28;20050;-80